createdAt,value
2023-05-06T00:00:51.670Z,10.1
2023-05-06T00:02:00.858Z,10.1
2023-05-06T00:03:10.029Z,10.2
2023-05-06T00:04:19.196Z,10.2
2023-05-06T00:05:28.362Z,10.2
2023-05-06T00:06:36.559Z,10.2
2023-05-06T00:07:45.731Z,10.2
2023-05-06T00:08:53.931Z,10.2
2023-05-06T00:10:03.110Z,10.2
2023-05-06T00:11:12.258Z,10.2
2023-05-06T00:12:21.442Z,10.1
2023-05-06T00:13:30.619Z,10
2023-05-06T00:14:38.809Z,10
2023-05-06T00:15:47.000Z,9.9
2023-05-06T00:16:56.167Z,9.8
2023-05-06T00:18:04.363Z,9.8
2023-05-06T00:19:12.544Z,9.7
2023-05-06T00:20:21.712Z,9.8
2023-05-06T00:21:30.899Z,9.8
2023-05-06T00:22:40.072Z,9.8
2023-05-06T00:23:49.246Z,9.8
2023-05-06T00:24:58.416Z,9.7
2023-05-06T00:26:07.581Z,9.7
2023-05-06T00:27:16.760Z,9.7
2023-05-06T00:28:25.935Z,9.8
2023-05-06T00:29:35.104Z,9.8
2023-05-06T00:30:44.276Z,9.9
2023-05-06T00:31:53.448Z,9.8
2023-05-06T00:33:02.616Z,9.8
2023-05-06T00:34:10.810Z,9.7
2023-05-06T00:35:19.979Z,9.7
2023-05-06T00:36:29.155Z,9.7
2023-05-06T00:37:38.330Z,9.7
2023-05-06T00:38:47.490Z,9.7
2023-05-06T00:39:56.666Z,9.7
2023-05-06T00:41:05.846Z,9.7
2023-05-06T00:42:14.041Z,9.7
2023-05-06T00:43:22.231Z,9.7
2023-05-06T00:44:30.424Z,9.7
2023-05-06T00:45:38.611Z,9.7
2023-05-06T00:46:47.775Z,9.9
2023-05-06T00:47:56.954Z,9.9
2023-05-06T00:49:06.126Z,9.9
2023-05-06T00:50:15.295Z,9.8
2023-05-06T00:51:24.471Z,9.8
2023-05-06T00:52:33.651Z,9.8
2023-05-06T00:54:51.985Z,9.8
2023-05-06T00:56:01.163Z,9.8
2023-05-06T00:57:10.331Z,9.7
2023-05-06T00:58:19.503Z,9.6
2023-05-06T00:59:28.677Z,9.6
2023-05-06T01:00:36.874Z,9.5
2023-05-06T01:01:46.038Z,9.5
2023-05-06T01:02:55.217Z,9.5
2023-05-06T01:04:04.384Z,9.5
2023-05-06T01:05:13.555Z,9.5
2023-05-06T01:06:22.724Z,9.5
2023-05-06T01:07:31.902Z,9.5
2023-05-06T01:08:41.071Z,9.5
2023-05-06T01:09:49.266Z,9.5
2023-05-06T01:10:57.465Z,9.5
2023-05-06T01:12:05.670Z,9.4
2023-05-06T01:13:13.844Z,9.5
2023-05-06T01:14:23.021Z,9.4
2023-05-06T01:15:32.185Z,9.5
2023-05-06T01:16:41.353Z,9.4
2023-05-06T01:17:50.542Z,9.4
2023-05-06T01:18:59.725Z,9.5
2023-05-06T01:20:08.883Z,9.5
2023-05-06T01:21:18.050Z,9.5
2023-05-06T01:22:27.220Z,9.5
2023-05-06T01:23:36.407Z,9.4
2023-05-06T01:24:45.563Z,9.4
2023-05-06T01:25:54.739Z,9.4
2023-05-06T01:27:03.917Z,9.4
2023-05-06T01:28:12.104Z,9.4
2023-05-06T01:29:21.283Z,9.3
2023-05-06T01:30:30.443Z,9.4
2023-05-06T01:31:39.633Z,9.4
2023-05-06T01:32:48.826Z,9.3
2023-05-06T01:33:57.962Z,9.4
2023-05-06T01:35:07.134Z,9.3
2023-05-06T01:36:15.336Z,9.3
2023-05-06T01:37:23.517Z,9.3
2023-05-06T01:38:31.709Z,9.2
2023-05-06T01:39:39.903Z,9.2
2023-05-06T01:40:49.080Z,9.1
2023-05-06T01:41:58.245Z,9
2023-05-06T01:43:07.429Z,9
2023-05-06T01:44:16.583Z,9
2023-05-06T01:45:25.769Z,9
2023-05-06T01:46:34.939Z,9.1
2023-05-06T01:47:44.122Z,9.1
2023-05-06T01:48:53.289Z,9.1
2023-05-06T01:50:02.468Z,9.1
2023-05-06T01:51:11.632Z,9
2023-05-06T01:52:20.789Z,9.1
2023-05-06T01:53:29.979Z,9.1
2023-05-06T01:54:38.164Z,9.1
2023-05-06T01:55:47.337Z,9.1
2023-05-06T01:56:56.503Z,9.1
2023-05-06T01:58:05.669Z,9.1
2023-05-06T01:59:14.844Z,9.1
2023-05-06T02:00:24.021Z,9.1
2023-05-06T02:01:33.197Z,9.1
2023-05-06T02:02:41.387Z,9.1
2023-05-06T02:03:49.586Z,9.1
2023-05-06T02:04:57.779Z,9.1
2023-05-06T02:06:05.962Z,9
2023-05-06T02:07:15.155Z,9
2023-05-06T02:08:24.305Z,8.9
2023-05-06T02:09:33.472Z,8.9
2023-05-06T02:10:42.645Z,8.9
2023-05-06T02:11:51.838Z,8.9
2023-05-06T02:13:00.996Z,8.9
2023-05-06T02:14:10.173Z,8.9
2023-05-06T02:15:19.328Z,8.9
2023-05-06T02:16:28.505Z,8.9
2023-05-06T02:17:37.682Z,8.9
2023-05-06T02:18:46.853Z,8.9
2023-05-06T02:19:56.023Z,9
2023-05-06T02:21:04.218Z,9
2023-05-06T02:22:13.393Z,9.1
2023-05-06T02:23:22.558Z,9.1
2023-05-06T02:24:31.720Z,9.1
2023-05-06T02:25:40.913Z,9
2023-05-06T02:26:50.078Z,8.9
2023-05-06T02:27:59.264Z,8.9
2023-05-06T02:29:07.450Z,8.8
2023-05-06T02:30:15.639Z,8.8
2023-05-06T02:31:24.823Z,8.9
2023-05-06T02:32:33.977Z,8.8
2023-05-06T02:33:43.154Z,8.8
2023-05-06T02:34:51.349Z,8.8
2023-05-06T02:35:59.538Z,8.7
2023-05-06T02:37:08.704Z,8.7
2023-05-06T02:38:17.894Z,8.7
2023-05-06T02:39:27.058Z,8.7
2023-05-06T02:40:36.234Z,8.7
2023-05-06T02:41:45.394Z,8.7
2023-05-06T02:42:54.572Z,8.6
2023-05-06T02:44:03.741Z,8.6
2023-05-06T02:45:12.915Z,8.5
2023-05-06T02:46:22.098Z,8.5
2023-05-06T02:47:31.255Z,8.5
2023-05-06T02:48:40.435Z,8.6
2023-05-06T02:49:49.611Z,8.7
2023-05-06T02:50:57.784Z,8.7
2023-05-06T02:52:06.974Z,8.7
2023-05-06T02:53:16.134Z,8.5
2023-05-06T02:54:25.388Z,8.4
2023-05-06T02:55:34.484Z,8.4
2023-05-06T02:56:43.661Z,8.4
2023-05-06T02:57:52.839Z,8.4
2023-05-06T02:59:01.023Z,8.4
2023-05-06T03:00:09.209Z,8.4
2023-05-06T03:01:18.383Z,8.4
2023-05-06T03:02:27.563Z,8.4
2023-05-06T03:03:36.733Z,8.4
2023-05-06T03:04:45.905Z,8.4
2023-05-06T03:05:55.078Z,8.4
2023-05-06T03:07:04.243Z,8.3
2023-05-06T03:08:13.426Z,8.2
2023-05-06T03:09:22.617Z,8.3
2023-05-06T03:10:31.758Z,8.2
2023-05-06T03:11:40.942Z,8.1
2023-05-06T03:12:50.118Z,8.1
2023-05-06T03:13:59.277Z,8.1
2023-05-06T03:15:07.479Z,8.2
2023-05-06T03:16:16.652Z,8.2
2023-05-06T03:17:25.848Z,8.2
2023-05-06T03:18:34.978Z,8.4
2023-05-06T03:19:44.162Z,8.6
2023-05-06T03:20:53.338Z,8.6
2023-05-06T03:22:02.506Z,8.5
2023-05-06T03:23:10.699Z,8.5
2023-05-06T03:24:18.886Z,8.7
2023-05-06T03:25:28.058Z,8.5
2023-05-06T03:26:36.270Z,8.5
2023-05-06T03:27:44.447Z,8.5
2023-05-06T03:28:53.639Z,8.5
2023-05-06T03:30:02.794Z,8.7
2023-05-06T03:31:11.969Z,8.6
2023-05-06T03:32:21.132Z,8.5
2023-05-06T03:33:30.311Z,8.4
2023-05-06T03:34:39.490Z,8.4
2023-05-06T03:35:48.652Z,8.3
2023-05-06T03:36:57.817Z,8.2
2023-05-06T03:38:07.003Z,8.2
2023-05-06T03:39:16.168Z,8.2
2023-05-06T03:40:25.349Z,8.1
2023-05-06T03:41:34.521Z,8.2
2023-05-06T03:42:42.710Z,8.2
2023-05-06T03:43:51.878Z,8.1
2023-05-06T03:45:01.046Z,8.1
2023-05-06T03:46:10.221Z,8.2
2023-05-06T03:47:19.404Z,8.2
2023-05-06T03:48:28.582Z,8.2
2023-05-06T03:49:37.744Z,8.2
2023-05-06T03:50:45.934Z,8.2
2023-05-06T03:51:54.130Z,8.2
2023-05-06T03:53:02.314Z,8.2
2023-05-06T03:54:10.516Z,8.1
2023-05-06T03:55:19.688Z,8.1
2023-05-06T03:56:28.856Z,8.1
2023-05-06T03:57:38.030Z,8.1
2023-05-06T03:58:47.213Z,8.1
2023-05-06T03:59:55.392Z,8.1
2023-05-06T04:01:04.571Z,8.1
2023-05-06T04:02:13.741Z,8.2
2023-05-06T04:03:22.932Z,8.3
2023-05-06T04:04:32.080Z,8.4
2023-05-06T04:05:41.254Z,8.3
2023-05-06T04:06:50.433Z,8.2
2023-05-06T04:07:59.600Z,8.3
2023-05-06T04:09:08.780Z,8.3
2023-05-06T04:11:27.120Z,8.4
2023-05-06T04:12:36.303Z,8.5
2023-05-06T04:13:45.479Z,8.6
2023-05-06T04:14:53.640Z,8.6
2023-05-06T04:16:02.831Z,8.7
2023-05-06T04:17:11.985Z,8.5
2023-05-06T04:18:20.189Z,8.5
2023-05-06T04:19:28.392Z,8.5
2023-05-06T04:20:37.554Z,8.5
2023-05-06T04:21:46.728Z,8.4
2023-05-06T04:22:54.919Z,8.6
2023-05-06T04:24:03.103Z,8.5
2023-05-06T04:25:12.285Z,8.4
2023-05-06T04:26:21.451Z,8.5
2023-05-06T04:27:30.618Z,8.5
2023-05-06T04:28:39.794Z,8.7
2023-05-06T04:29:48.973Z,8.6
2023-05-06T04:30:58.147Z,8.7
2023-05-06T04:32:07.318Z,8.6
2023-05-06T04:33:16.492Z,8.7
2023-05-06T04:34:25.667Z,8.7
2023-05-06T04:35:34.837Z,8.7
2023-05-06T04:36:44.006Z,8.7
2023-05-06T04:37:53.182Z,8.8
2023-05-06T04:39:01.381Z,8.6
2023-05-06T04:40:10.551Z,8.6
2023-05-06T04:41:19.711Z,8.8
2023-05-06T04:42:28.894Z,8.7
2023-05-06T04:43:38.064Z,8.6
2023-05-06T04:44:47.244Z,8.8
2023-05-06T04:45:56.402Z,8.8
2023-05-06T04:47:05.606Z,8.8
2023-05-06T04:48:14.755Z,8.7
2023-05-06T04:49:23.927Z,8.7
2023-05-06T04:50:33.114Z,8.8
2023-05-06T04:51:42.285Z,8.8
2023-05-06T04:52:51.442Z,8.8
2023-05-06T04:53:59.625Z,8.8
2023-05-06T04:55:08.794Z,8.8
2023-05-06T04:56:17.975Z,8.9
2023-05-06T04:58:36.329Z,9.1
2023-05-06T04:59:45.493Z,9
2023-05-06T05:00:54.669Z,8.9
2023-05-06T05:02:03.835Z,9.1
2023-05-06T05:03:13.015Z,9.1
2023-05-06T05:04:22.182Z,9
2023-05-06T05:05:31.366Z,9
2023-05-06T05:06:40.539Z,9
2023-05-06T05:07:49.698Z,9.1
2023-05-06T05:08:57.908Z,9.1
2023-05-06T05:10:07.053Z,9.2
2023-05-06T05:11:16.241Z,9.2
2023-05-06T05:12:25.410Z,9.1
2023-05-06T05:13:34.574Z,9.2
2023-05-06T05:14:43.764Z,9.3
2023-05-06T05:15:52.944Z,9.1
2023-05-06T05:17:02.095Z,9.2
2023-05-06T05:18:11.267Z,9.4
2023-05-06T05:19:20.449Z,9.7
2023-05-06T05:20:29.614Z,9.6
2023-05-06T05:21:38.798Z,9.2
2023-05-06T05:22:47.975Z,9.4
2023-05-06T05:23:56.144Z,9.5
2023-05-06T05:25:05.322Z,9.2
2023-05-06T05:27:23.669Z,9.3
2023-05-06T05:29:41.996Z,9.4
2023-05-06T05:30:51.182Z,9.3
2023-05-06T05:32:00.368Z,9.2
2023-05-06T05:33:09.533Z,9.3
2023-05-06T05:35:27.869Z,9.3
2023-05-06T05:36:36.074Z,9.3
2023-05-06T05:37:44.250Z,9.4
2023-05-06T05:38:53.425Z,9.5
2023-05-06T05:40:02.610Z,9.3
2023-05-06T05:41:11.777Z,9.4
2023-05-06T05:42:20.943Z,9.5
2023-05-06T05:43:30.125Z,9.5
2023-05-06T05:44:39.289Z,9.5
2023-05-06T05:46:57.629Z,9.7
2023-05-06T05:48:06.805Z,9.8
2023-05-06T05:49:15.973Z,9.8
2023-05-06T05:50:25.142Z,9.7
2023-05-06T05:51:34.318Z,9.7
2023-05-06T05:52:42.520Z,9.8
2023-05-06T05:53:51.687Z,9.9
2023-05-06T05:55:00.846Z,9.9
2023-05-06T05:56:10.030Z,9.9
2023-05-06T05:57:19.197Z,9.9
2023-05-06T05:58:28.381Z,9.9
2023-05-06T05:59:37.541Z,9.9
2023-05-06T06:00:46.731Z,9.9
2023-05-06T06:01:54.910Z,9.9
2023-05-06T06:03:03.121Z,10
2023-05-06T06:04:12.273Z,9.9
2023-05-06T06:05:21.449Z,10
2023-05-06T06:06:30.612Z,9.9
2023-05-06T06:07:39.786Z,9.9
2023-05-06T06:08:48.969Z,10
2023-05-06T06:11:07.317Z,10.1
2023-05-06T06:12:16.474Z,10.4
2023-05-06T06:13:25.647Z,10.4
2023-05-06T06:14:34.817Z,10.2
2023-05-06T06:15:44.002Z,10.1
2023-05-06T06:16:53.172Z,10.2
2023-05-06T06:18:01.353Z,10.2
2023-05-06T06:19:10.525Z,10.4
2023-05-06T06:20:19.706Z,10.5
2023-05-06T06:21:28.879Z,10.4
2023-05-06T06:22:38.039Z,10.4
2023-05-06T06:23:47.223Z,10.3
2023-05-06T06:24:56.384Z,10.4
2023-05-06T06:26:05.552Z,10.2
2023-05-06T06:27:14.750Z,10.3
2023-05-06T06:28:23.917Z,10.4
2023-05-06T06:29:33.096Z,10.4
2023-05-06T06:30:42.261Z,10.5
2023-05-06T06:31:51.436Z,10.5
2023-05-06T06:32:59.602Z,10.8
2023-05-06T06:34:08.794Z,10.6
2023-05-06T06:35:17.962Z,10.5
2023-05-06T06:36:27.130Z,10.5
2023-05-06T06:37:36.318Z,10.4
2023-05-06T06:38:45.481Z,10.7
2023-05-06T06:39:54.681Z,10.6
2023-05-06T06:41:03.838Z,10.6
2023-05-06T06:42:13.006Z,10.6
2023-05-06T06:43:22.155Z,10.8
2023-05-06T06:44:31.352Z,10.7
2023-05-06T06:45:40.523Z,10.7
2023-05-06T06:46:49.699Z,10.6
2023-05-06T06:47:57.876Z,10.8
2023-05-06T06:49:06.081Z,10.9
2023-05-06T06:51:23.439Z,11.1
2023-05-06T06:52:32.604Z,11.1
2023-05-06T06:53:41.773Z,11
2023-05-06T06:54:49.969Z,11.1
2023-05-06T06:55:58.154Z,11.2
2023-05-06T06:57:07.326Z,11
2023-05-06T06:58:16.509Z,11.1
2023-05-06T06:59:25.680Z,11.3
2023-05-06T07:00:34.855Z,11.3
2023-05-06T07:01:44.017Z,11
2023-05-06T07:02:53.186Z,10.9
2023-05-06T07:04:02.369Z,10.9
2023-05-06T07:05:11.534Z,11
2023-05-06T07:06:20.699Z,11.4
2023-05-06T07:07:29.882Z,11.5
2023-05-06T07:08:39.059Z,11.3
2023-05-06T07:09:48.227Z,11.4
2023-05-06T07:10:56.407Z,11.5
2023-05-06T07:13:14.750Z,11.5
2023-05-06T07:14:23.922Z,11.5
2023-05-06T07:15:33.102Z,11.4
2023-05-06T07:16:42.287Z,11.2
2023-05-06T07:17:51.452Z,11.2
2023-05-06T07:19:00.619Z,11.3
2023-05-06T07:20:09.797Z,11.4
2023-05-06T07:21:18.962Z,11.3
2023-05-06T07:22:28.128Z,11.4
2023-05-06T07:23:37.301Z,11.6
2023-05-06T07:24:46.473Z,11.6
2023-05-06T07:25:54.663Z,11.8
2023-05-06T07:27:03.835Z,11.9
2023-05-06T07:28:13.004Z,11.8
2023-05-06T07:29:22.195Z,11.7
2023-05-06T07:30:31.363Z,11.6
2023-05-06T07:31:40.523Z,11.6
2023-05-06T07:32:49.704Z,11.5
2023-05-06T07:33:58.870Z,11.7
2023-05-06T07:35:07.083Z,12
2023-05-06T07:36:15.247Z,11.8
2023-05-06T07:37:24.434Z,11.8
2023-05-06T07:38:32.632Z,11.7
2023-05-06T07:39:41.800Z,11.9
2023-05-06T07:40:49.978Z,11.8
2023-05-06T07:41:59.152Z,11.9
2023-05-06T07:43:08.322Z,11.7
2023-05-06T07:44:17.506Z,11.7
2023-05-06T07:45:26.670Z,12
2023-05-06T07:46:35.852Z,12.4
2023-05-06T07:47:45.016Z,12.2
2023-05-06T07:48:54.173Z,12.1
2023-05-06T07:50:03.358Z,12.3
2023-05-06T07:51:12.546Z,12.5
2023-05-06T07:52:20.740Z,12.7
2023-05-06T07:53:29.905Z,12.5
2023-05-06T07:54:39.075Z,12.3
2023-05-06T07:55:48.238Z,12.4
2023-05-06T07:56:57.417Z,12.4
2023-05-06T07:58:06.591Z,12.7
2023-05-06T07:59:15.768Z,12.9
2023-05-06T08:00:24.934Z,12.5
2023-05-06T08:01:34.121Z,12.5
2023-05-06T08:02:42.307Z,12.6
2023-05-06T08:03:50.491Z,12.6
2023-05-06T08:04:59.653Z,12.7
2023-05-06T08:06:08.829Z,12.5
2023-05-06T08:07:18.009Z,12.6
2023-05-06T08:08:27.190Z,12.7
2023-05-06T08:09:36.349Z,13
2023-05-06T08:10:45.525Z,13.1
2023-05-06T08:11:54.688Z,13.5
2023-05-06T08:13:03.869Z,13.6
2023-05-06T08:14:13.035Z,13.9
2023-05-06T08:15:22.214Z,13.8
2023-05-06T08:16:31.393Z,13.7
2023-05-06T08:17:40.567Z,13.8
2023-05-06T08:18:49.734Z,13.9
2023-05-06T08:19:57.918Z,13.8
2023-05-06T08:21:07.107Z,13.5
2023-05-06T08:22:16.270Z,13.6
2023-05-06T08:23:25.433Z,13.6
2023-05-06T08:24:34.606Z,13.4
2023-05-06T08:26:52.936Z,13.9
2023-05-06T08:28:01.150Z,14
2023-05-06T08:29:10.315Z,13.9
2023-05-06T08:30:18.503Z,13.7
2023-05-06T08:31:27.678Z,13.6
2023-05-06T08:32:35.870Z,13.7
2023-05-06T08:33:44.065Z,13.9
2023-05-06T08:34:53.231Z,14
2023-05-06T08:36:02.405Z,14.5
2023-05-06T08:37:11.560Z,14.7
2023-05-06T08:38:20.752Z,15
2023-05-06T08:39:29.925Z,15
2023-05-06T08:40:38.118Z,14.8
2023-05-06T08:41:46.306Z,14.9
2023-05-06T08:42:55.477Z,14.7
2023-05-06T08:44:04.655Z,14.8
2023-05-06T08:45:13.826Z,15
2023-05-06T08:46:22.999Z,15.1
2023-05-06T08:47:32.164Z,15.4
2023-05-06T08:48:41.339Z,14.9
2023-05-06T08:49:50.511Z,15.1
2023-05-06T08:50:59.687Z,15.4
2023-05-06T08:52:08.851Z,15.3
2023-05-06T08:53:18.026Z,15.5
2023-05-06T08:54:27.202Z,15.5
2023-05-06T08:55:36.376Z,15.9
2023-05-06T08:56:44.550Z,16.4
2023-05-06T08:57:53.728Z,16.6
2023-05-06T08:59:02.911Z,16.6
2023-05-06T09:00:12.076Z,16.4
2023-05-06T09:01:21.244Z,16.6
2023-05-06T09:02:30.430Z,16.5
2023-05-06T09:03:39.582Z,16.2
2023-05-06T09:04:47.775Z,15.6
2023-05-06T09:05:55.978Z,15.7
2023-05-06T09:07:04.225Z,16.1
2023-05-06T09:08:12.356Z,15.9
2023-05-06T09:09:21.528Z,16.4
2023-05-06T09:10:30.701Z,16.6
2023-05-06T09:11:39.877Z,16.8
2023-05-06T09:12:49.043Z,17.3
2023-05-06T09:13:58.214Z,17.2
2023-05-06T09:15:07.385Z,17
2023-05-06T09:16:16.572Z,17
2023-05-06T09:17:25.728Z,16.7
2023-05-06T09:18:34.901Z,16.8
2023-05-06T09:19:44.068Z,17.1
2023-05-06T09:20:53.245Z,17.6
2023-05-06T09:22:02.422Z,17.7
2023-05-06T09:23:10.610Z,17.6
2023-05-06T09:24:19.784Z,17.8
2023-05-06T09:25:28.962Z,18
2023-05-06T09:26:38.127Z,17.4
2023-05-06T09:30:05.637Z,17.2
2023-05-06T09:31:13.828Z,17.5
2023-05-06T09:32:22.026Z,17.3
2023-05-06T09:34:40.376Z,18.9
2023-05-06T09:35:49.532Z,18.7
2023-05-06T09:36:58.712Z,18.9
2023-05-06T09:38:07.888Z,18.2
2023-05-06T09:39:17.069Z,17.5
2023-05-06T09:40:26.229Z,17.6
2023-05-06T09:41:35.398Z,17.8
2023-05-06T09:42:44.572Z,18.1
2023-05-06T09:43:53.740Z,17.6
2023-05-06T09:45:02.903Z,17.4
2023-05-06T09:46:12.093Z,18
2023-05-06T09:47:20.284Z,18.1
2023-05-06T09:48:29.455Z,17.5
2023-05-06T09:49:38.620Z,17.2
2023-05-06T09:50:47.792Z,17.6
2023-05-06T09:51:56.973Z,17.8
2023-05-06T09:53:06.139Z,18.4
2023-05-06T09:54:15.317Z,18.5
2023-05-06T09:56:33.659Z,18.9
2023-05-06T09:58:51.033Z,17.6
2023-05-06T09:59:59.222Z,17.4
2023-05-06T10:01:07.412Z,17.8
2023-05-06T10:02:16.581Z,17.8
2023-05-06T10:03:25.750Z,17.7
2023-05-06T10:04:34.931Z,17.4
2023-05-06T10:05:44.091Z,17.7
2023-05-06T10:06:53.281Z,17.6
2023-05-06T10:08:02.444Z,17.5
2023-05-06T10:09:11.636Z,17.7
2023-05-06T10:10:20.794Z,17.6
2023-05-06T10:11:28.984Z,18.4
2023-05-06T10:12:37.158Z,18.3
2023-05-06T10:13:46.384Z,18.1
2023-05-06T10:14:55.509Z,18.2
2023-05-06T10:16:04.696Z,18.4
2023-05-06T10:17:13.857Z,18.7
2023-05-06T10:18:23.022Z,19.3
2023-05-06T10:20:41.383Z,19.6
2023-05-06T10:21:50.540Z,19
2023-05-06T10:22:59.728Z,19.2
2023-05-06T10:24:08.904Z,18.9
2023-05-06T10:25:18.070Z,19.1
2023-05-06T10:26:27.252Z,19.2
2023-05-06T10:27:35.427Z,19.4
2023-05-06T10:28:44.594Z,18.9
2023-05-06T10:29:53.769Z,19.3
2023-05-06T10:31:02.947Z,18.8
2023-05-06T10:32:12.106Z,19.4
2023-05-06T10:33:21.280Z,19.5
2023-05-06T10:34:30.454Z,19.3
2023-05-06T10:35:39.626Z,19.2
2023-05-06T10:36:48.786Z,19.5
2023-05-06T10:37:57.968Z,19.3
2023-05-06T10:39:06.168Z,19.4
2023-05-06T10:40:14.345Z,19.4
2023-05-06T10:41:23.519Z,19.3
2023-05-06T10:42:32.684Z,19.5
2023-05-06T10:44:51.029Z,19.6
2023-05-06T10:45:59.233Z,19.7
2023-05-06T10:47:07.418Z,20.3
2023-05-06T10:48:16.581Z,20.5
2023-05-06T10:49:25.778Z,20.8
2023-05-06T10:50:34.948Z,20.1
2023-05-06T10:51:44.110Z,19.4
2023-05-06T10:52:53.274Z,19.8
2023-05-06T10:54:02.446Z,20.6
2023-05-06T10:55:11.603Z,20.6
2023-05-06T10:56:20.789Z,20.9
2023-05-06T10:58:39.141Z,20.8
2023-05-06T10:59:48.312Z,20.7
2023-05-06T11:00:57.483Z,21
2023-05-06T11:02:05.663Z,21.4
2023-05-06T11:03:14.837Z,21.7
2023-05-06T11:04:24.023Z,21.6
2023-05-06T11:05:33.193Z,21.4
2023-05-06T11:06:42.366Z,21.4
2023-05-06T11:07:51.532Z,21.4
2023-05-06T11:09:00.699Z,21.9
2023-05-06T11:11:19.043Z,21.9
2023-05-06T11:13:37.394Z,20.5
2023-05-06T11:14:45.590Z,20.2
2023-05-06T11:15:53.777Z,20.3
2023-05-06T11:18:12.114Z,21.6
2023-05-06T11:19:21.290Z,21.2
2023-05-06T11:20:29.516Z,20.3
2023-05-06T11:21:38.670Z,20.3
2023-05-06T11:22:46.833Z,19.9
2023-05-06T11:23:56.019Z,19.8
2023-05-06T11:25:05.183Z,19.8
2023-05-06T11:26:14.370Z,20.6
2023-05-06T11:27:23.537Z,21
2023-05-06T11:28:32.709Z,20.2
2023-05-06T11:29:41.875Z,20.3
2023-05-06T11:30:51.053Z,20.6
2023-05-06T11:32:00.225Z,20.2
2023-05-06T11:33:08.421Z,20.2
2023-05-06T11:34:16.601Z,20.6
2023-05-06T11:35:25.769Z,20.9
2023-05-06T11:36:34.941Z,21.2
2023-05-06T11:37:44.159Z,21.5
2023-05-06T11:38:53.296Z,21.2
2023-05-06T11:40:02.461Z,20.9
2023-05-06T11:42:20.811Z,20.4
2023-05-06T11:43:29.015Z,20.2
2023-05-06T11:44:38.175Z,20.7
2023-05-06T11:45:47.410Z,21.1
2023-05-06T11:46:56.531Z,19.9
2023-05-06T11:48:05.696Z,19.6
2023-05-06T11:49:14.867Z,19.3
2023-05-06T11:50:24.044Z,19.1
2023-05-06T11:51:33.203Z,20
2023-05-06T11:52:42.396Z,20.5
2023-05-06T11:53:51.552Z,21.3
2023-05-06T11:55:00.725Z,21.6
2023-05-06T11:56:09.891Z,21.9
2023-05-06T11:57:19.068Z,21.3
2023-05-06T11:58:27.246Z,20.6
2023-05-06T11:59:36.430Z,20.2
2023-05-06T12:00:45.601Z,19.8
2023-05-06T12:01:54.772Z,20.2
2023-05-06T12:03:03.958Z,21
2023-05-06T12:04:12.143Z,21
2023-05-06T12:05:20.343Z,21.8
2023-05-06T12:06:29.500Z,21.3
2023-05-06T12:07:38.681Z,20.7
2023-05-06T12:08:47.856Z,20.8
2023-05-06T12:09:57.009Z,21
2023-05-06T12:11:06.204Z,21.6
2023-05-06T12:12:14.382Z,21.5
2023-05-06T12:13:22.574Z,22.1
2023-05-06T12:14:31.742Z,22.3
2023-05-06T12:15:40.916Z,22.3
2023-05-06T12:16:50.090Z,22.1
2023-05-06T12:17:59.259Z,21.9
2023-05-06T12:19:08.425Z,21.8
2023-05-06T12:20:17.600Z,21.8
2023-05-06T12:21:26.791Z,22
2023-05-06T12:22:35.961Z,21.7
2023-05-06T12:23:45.115Z,21.4
2023-05-06T12:24:54.287Z,21.5
2023-05-06T12:27:12.638Z,21.6
2023-05-06T12:28:20.818Z,22.2
2023-05-06T12:29:30.009Z,21.9
2023-05-06T12:30:39.180Z,22
2023-05-06T12:31:48.344Z,22.3
2023-05-06T12:32:57.518Z,22.7
2023-05-06T12:34:06.694Z,22.7
2023-05-06T12:35:15.865Z,22.4
2023-05-06T12:36:25.033Z,22.2
2023-05-06T12:37:34.203Z,22.2
2023-05-06T12:38:43.387Z,21.7
2023-05-06T12:39:52.567Z,21.9
2023-05-06T12:41:01.726Z,21.8
2023-05-06T12:42:10.957Z,21.6
2023-05-06T12:43:20.071Z,21.6
2023-05-06T12:44:28.264Z,21.5
2023-05-06T12:45:37.432Z,21.8
2023-05-06T12:46:46.604Z,21.8
2023-05-06T12:47:55.774Z,21.8
2023-05-06T12:49:04.945Z,21
2023-05-06T12:50:14.114Z,21.5
2023-05-06T12:51:23.301Z,21.7
2023-05-06T12:52:32.470Z,21.6
2023-05-06T12:53:41.643Z,21.7
2023-05-06T12:54:50.819Z,21.5
2023-05-06T12:55:59.983Z,21.1
2023-05-06T12:57:09.151Z,21.5
2023-05-06T12:58:18.330Z,21.6
2023-05-06T12:59:27.525Z,21.6
2023-05-06T13:00:35.684Z,21.5
2023-05-06T13:01:44.860Z,21.7
2023-05-06T13:02:54.038Z,22
2023-05-06T13:04:03.205Z,21.3
2023-05-06T13:05:12.378Z,21.1
2023-05-06T13:06:21.551Z,21.3
2023-05-06T13:07:30.720Z,22.2
2023-05-06T13:08:39.884Z,22.7
2023-05-06T13:09:49.059Z,21.9
2023-05-06T13:10:58.234Z,21
2023-05-06T13:12:07.453Z,21.4
2023-05-06T13:13:16.594Z,21.8
2023-05-06T13:14:25.768Z,22.1
2023-05-06T13:15:33.945Z,22.1
2023-05-06T13:16:43.114Z,23
2023-05-06T13:17:52.280Z,23.2
2023-05-06T13:19:01.473Z,23.1
2023-05-06T13:20:10.635Z,23.3
2023-05-06T13:21:19.818Z,23.2
2023-05-06T13:22:28.979Z,23
2023-05-06T13:23:38.152Z,22.7
2023-05-06T13:24:47.315Z,22.1
2023-05-06T13:25:56.497Z,21.8
2023-05-06T13:27:05.690Z,21.2
2023-05-06T13:28:14.862Z,21.5
2023-05-06T13:29:24.006Z,21.8
2023-05-06T13:30:32.198Z,22.3
2023-05-06T13:31:41.368Z,22.1
2023-05-06T13:32:50.546Z,22
2023-05-06T13:33:59.713Z,21.7
2023-05-06T13:35:08.891Z,21.6
2023-05-06T13:36:18.070Z,21.9
2023-05-06T13:37:27.239Z,21.9
2023-05-06T13:38:36.429Z,21.9
2023-05-06T13:39:45.579Z,21.6
2023-05-06T13:40:53.775Z,21.6
2023-05-06T13:42:01.959Z,21.8
2023-05-06T13:43:11.139Z,22
2023-05-06T13:44:20.302Z,22
2023-05-06T13:45:29.484Z,21.9
2023-05-06T13:46:38.650Z,22
2023-05-06T13:47:47.822Z,21.4
2023-05-06T13:48:56.013Z,21.4
2023-05-06T13:50:04.218Z,21.6
2023-05-06T13:51:13.374Z,22.1
2023-05-06T13:52:22.547Z,22.2
2023-05-06T13:53:31.722Z,22.2
2023-05-06T13:54:40.899Z,22
2023-05-06T13:55:50.067Z,22.3
2023-05-06T13:58:08.413Z,22.1
2023-05-06T13:59:17.577Z,21.9
2023-05-06T14:00:26.762Z,21.8
2023-05-06T14:01:35.924Z,21.3
2023-05-06T14:02:45.103Z,21.8
2023-05-06T14:03:54.287Z,22.1
2023-05-06T14:05:02.470Z,22.3
2023-05-06T14:06:11.640Z,22.7
2023-05-06T14:07:20.809Z,22.8
2023-05-06T14:08:29.979Z,22.8
2023-05-06T14:09:39.148Z,22.3
2023-05-06T14:10:48.329Z,22.1
2023-05-06T14:11:57.495Z,21.6
2023-05-06T14:13:06.662Z,21.7
2023-05-06T14:14:14.859Z,21.9
2023-05-06T14:15:23.043Z,21.8
2023-05-06T14:16:31.265Z,21.3
2023-05-06T14:18:48.609Z,21.8
2023-05-06T14:19:57.778Z,22.2
2023-05-06T14:21:06.952Z,22.8
2023-05-06T14:22:16.129Z,22.9
2023-05-06T14:23:25.296Z,22.7
2023-05-06T14:24:34.461Z,22.8
2023-05-06T14:25:43.638Z,22.4
2023-05-06T14:26:52.829Z,22.8
2023-05-06T14:28:01.978Z,22.8
2023-05-06T14:29:11.155Z,22.3
2023-05-06T14:30:20.326Z,22.3
2023-05-06T14:31:29.511Z,22.6
2023-05-06T14:32:37.702Z,22.7
2023-05-06T14:33:46.860Z,22.6
2023-05-06T14:34:56.045Z,22.1
2023-05-06T14:36:05.200Z,22.1
2023-05-06T14:37:14.380Z,21.6
2023-05-06T14:38:23.570Z,21.3
2023-05-06T14:39:32.723Z,21
2023-05-06T14:40:41.895Z,20.6
2023-05-06T14:41:50.084Z,20.4
2023-05-06T14:42:58.273Z,20.3
2023-05-06T14:44:07.441Z,20.4
2023-05-06T14:45:16.643Z,20.9
2023-05-06T14:46:25.781Z,21.8
2023-05-06T14:47:34.957Z,22.4
2023-05-06T14:48:44.205Z,22.4
2023-05-06T14:49:53.313Z,22.1
2023-05-06T14:51:01.513Z,22
2023-05-06T14:52:09.687Z,22.3
2023-05-06T14:53:18.862Z,22.6
2023-05-06T14:54:28.035Z,22.5
2023-05-06T14:55:37.209Z,22.2
2023-05-06T14:56:46.381Z,21.8
2023-05-06T14:57:55.553Z,21.9
2023-05-06T14:59:04.718Z,22.9
2023-05-06T15:00:13.895Z,23.8
2023-05-06T15:01:23.064Z,24
2023-05-06T15:02:32.249Z,23.7
2023-05-06T15:03:41.439Z,24.3
2023-05-06T15:04:50.593Z,24.5
2023-05-06T15:05:59.754Z,24.6
2023-05-06T15:07:07.972Z,24.2
2023-05-06T15:08:17.131Z,22.7
2023-05-06T15:09:26.287Z,22.3
2023-05-06T15:10:35.464Z,22
2023-05-06T15:11:44.653Z,22.1
2023-05-06T15:12:53.824Z,22.3
2023-05-06T15:14:02.987Z,22.2
2023-05-06T15:15:12.158Z,22.1
2023-05-06T15:16:20.340Z,21.7
2023-05-06T15:17:28.598Z,22
2023-05-06T15:18:37.711Z,21.9
2023-05-06T15:19:46.886Z,21.8
2023-05-06T15:20:56.053Z,21.9
2023-05-06T15:22:05.228Z,21.7
2023-05-06T15:23:14.399Z,21.7
2023-05-06T15:24:23.569Z,21.6
2023-05-06T15:25:31.763Z,21.7
2023-05-06T15:26:39.947Z,21.5
2023-05-06T15:27:49.133Z,21.1
2023-05-06T15:28:58.320Z,21
2023-05-06T15:30:07.472Z,21.2
2023-05-06T15:31:16.653Z,21.2
2023-05-06T15:32:25.817Z,21.3
2023-05-06T15:33:34.987Z,21.2
2023-05-06T15:34:43.193Z,21.2
2023-05-06T15:35:52.341Z,21.3
2023-05-06T15:37:01.558Z,21.1
2023-05-06T15:38:10.712Z,21.5
2023-05-06T15:39:19.872Z,21.9
2023-05-06T15:40:29.060Z,22
2023-05-06T15:41:38.224Z,21.5
2023-05-06T15:42:47.381Z,21.6
2023-05-06T15:43:56.552Z,21.5
2023-05-06T15:45:05.741Z,21.4
2023-05-06T15:46:14.907Z,21.4
2023-05-06T15:47:24.104Z,21.4
2023-05-06T15:48:33.244Z,21.5
2023-05-06T15:49:41.491Z,21.5
2023-05-06T15:50:50.611Z,21.4
2023-05-06T15:51:59.773Z,21.2
2023-05-06T15:53:08.945Z,21.1
2023-05-06T15:54:18.115Z,20.9
2023-05-06T15:55:27.299Z,20.7
2023-05-06T15:56:36.452Z,20.7
2023-05-06T15:57:45.637Z,20.9
2023-05-06T15:58:54.804Z,21.3
2023-05-06T16:01:13.149Z,21.6
2023-05-06T16:02:22.318Z,21.6
2023-05-06T16:03:31.492Z,21.5
2023-05-06T16:04:39.685Z,21.6
2023-05-06T16:05:48.848Z,21.5